sensor_id;sensor_type;location;lat;lon;timestamp;P1;durP1;ratioP1;P2;durP2;ratioP2
76202;SDS011;64985;46.364;17.008;2023-06-22T00:01:13;13.05;;;5.30;;
76202;SDS011;64985;46.364;17.008;2023-06-22T00:04:16;11.18;;;5.28;;
76202;SDS011;64985;46.364;17.008;2023-06-22T00:07:18;17.67;;;5.53;;
76202;SDS011;64985;46.364;17.008;2023-06-22T00:10:20;8.70;;;4.97;;
76202;SDS011;64985;46.364;17.008;2023-06-22T00:13:22;10.20;;;5.35;;
76202;SDS011;64985;46.364;17.008;2023-06-22T00:16:24;17.95;;;5.20;;
76202;SDS011;64985;46.364;17.008;2023-06-22T00:19:26;9.35;;;4.70;;
76202;SDS011;64985;46.364;17.008;2023-06-22T00:22:28;13.02;;;5.30;;
76202;SDS011;64985;46.364;17.008;2023-06-22T00:25:31;11.55;;;4.68;;
76202;SDS011;64985;46.364;17.008;2023-06-22T00:28:33;12.00;;;5.43;;
76202;SDS011;64985;46.364;17.008;2023-06-22T00:31:35;9.38;;;4.80;;
76202;SDS011;64985;46.364;17.008;2023-06-22T00:34:37;8.35;;;4.72;;
76202;SDS011;64985;46.364;17.008;2023-06-22T00:37:40;13.30;;;4.63;;
76202;SDS011;64985;46.364;17.008;2023-06-22T00:40:44;11.75;;;4.80;;
76202;SDS011;64985;46.364;17.008;2023-06-22T00:43:46;7.78;;;4.40;;
76202;SDS011;64985;46.364;17.008;2023-06-22T00:46:49;10.15;;;4.28;;
76202;SDS011;64985;46.364;17.008;2023-06-22T00:49:51;11.52;;;4.53;;
76202;SDS011;64985;46.364;17.008;2023-06-22T00:52:54;12.73;;;4.63;;
76202;SDS011;64985;46.364;17.008;2023-06-22T00:55:59;9.23;;;4.40;;
76202;SDS011;64985;46.364;17.008;2023-06-22T00:59:02;13.20;;;4.80;;
76202;SDS011;64985;46.364;17.008;2023-06-22T01:02:05;13.90;;;4.93;;
76202;SDS011;64985;46.364;17.008;2023-06-22T01:05:07;15.10;;;4.80;;
76202;SDS011;64985;46.364;17.008;2023-06-22T01:08:16;10.43;;;4.75;;
76202;SDS011;64985;46.364;17.008;2023-06-22T01:11:40;10.15;;;5.00;;
76202;SDS011;64985;46.364;17.008;2023-06-22T01:14:49;12.27;;;5.20;;
76202;SDS011;64985;46.364;17.008;2023-06-22T01:17:59;10.18;;;5.13;;
76202;SDS011;64985;46.364;17.008;2023-06-22T01:21:05;13.48;;;5.10;;
76202;SDS011;64985;46.364;17.008;2023-06-22T01:31:05;11.57;;;4.97;;
76202;SDS011;64985;46.364;17.008;2023-06-22T01:34:10;10.25;;;4.95;;
76202;SDS011;64985;46.364;17.008;2023-06-22T01:37:14;10.40;;;4.75;;
76202;SDS011;64985;46.364;17.008;2023-06-22T01:40:17;12.70;;;5.13;;
76202;SDS011;64985;46.364;17.008;2023-06-22T01:43:21;10.68;;;5.05;;
76202;SDS011;64985;46.364;17.008;2023-06-22T01:46:24;10.73;;;5.70;;
76202;SDS011;64985;46.364;17.008;2023-06-22T01:49:27;10.95;;;5.55;;
76202;SDS011;64985;46.364;17.008;2023-06-22T01:52:29;10.93;;;5.55;;
76202;SDS011;64985;46.364;17.008;2023-06-22T01:55:32;12.18;;;5.47;;
76202;SDS011;64985;46.364;17.008;2023-06-22T01:58:34;12.43;;;5.13;;
76202;SDS011;64985;46.364;17.008;2023-06-22T02:01:52;8.93;;;5.45;;
76202;SDS011;64985;46.364;17.008;2023-06-22T02:05:03;12.77;;;5.72;;
76202;SDS011;64985;46.364;17.008;2023-06-22T02:08:09;17.13;;;5.43;;
76202;SDS011;64985;46.364;17.008;2023-06-22T02:11:19;9.02;;;5.30;;
76202;SDS011;64985;46.364;17.008;2023-06-22T02:14:23;9.48;;;5.30;;
76202;SDS011;64985;46.364;17.008;2023-06-22T02:17:26;12.43;;;5.90;;
76202;SDS011;64985;46.364;17.008;2023-06-22T02:20:28;11.82;;;6.03;;
76202;SDS011;64985;46.364;17.008;2023-06-22T02:23:31;12.48;;;5.68;;
76202;SDS011;64985;46.364;17.008;2023-06-22T02:26:36;13.23;;;5.68;;
76202;SDS011;64985;46.364;17.008;2023-06-22T02:29:39;12.27;;;6.22;;
76202;SDS011;64985;46.364;17.008;2023-06-22T02:32:42;13.30;;;6.47;;
76202;SDS011;64985;46.364;17.008;2023-06-22T02:35:45;14.38;;;7.03;;
76202;SDS011;64985;46.364;17.008;2023-06-22T02:38:50;16.85;;;8.60;;
76202;SDS011;64985;46.364;17.008;2023-06-22T02:41:52;13.85;;;8.60;;
76202;SDS011;64985;46.364;17.008;2023-06-22T02:44:56;14.20;;;7.85;;
76202;SDS011;64985;46.364;17.008;2023-06-22T02:47:58;13.23;;;8.93;;
76202;SDS011;64985;46.364;17.008;2023-06-22T02:51:00;14.20;;;9.50;;
76202;SDS011;64985;46.364;17.008;2023-06-22T02:54:02;17.20;;;10.68;;
76202;SDS011;64985;46.364;17.008;2023-06-22T02:57:05;19.77;;;11.07;;
76202;SDS011;64985;46.364;17.008;2023-06-22T03:00:07;21.10;;;10.57;;
76202;SDS011;64985;46.364;17.008;2023-06-22T03:03:18;22.35;;;10.40;;
76202;SDS011;64985;46.364;17.008;2023-06-22T03:06:21;17.27;;;9.00;;
76202;SDS011;64985;46.364;17.008;2023-06-22T03:09:29;16.58;;;9.10;;
76202;SDS011;64985;46.364;17.008;2023-06-22T03:12:32;15.73;;;8.85;;
76202;SDS011;64985;46.364;17.008;2023-06-22T03:15:34;19.55;;;8.70;;
76202;SDS011;64985;46.364;17.008;2023-06-22T03:18:36;15.93;;;8.60;;
76202;SDS011;64985;46.364;17.008;2023-06-22T03:21:39;17.45;;;9.25;;
76202;SDS011;64985;46.364;17.008;2023-06-22T03:24:42;16.52;;;8.07;;
76202;SDS011;64985;46.364;17.008;2023-06-22T03:27:44;20.45;;;8.52;;
76202;SDS011;64985;46.364;17.008;2023-06-22T03:30:46;33.25;;;23.42;;
76202;SDS011;64985;46.364;17.008;2023-06-22T03:33:49;22.80;;;12.23;;
76202;SDS011;64985;46.364;17.008;2023-06-22T03:36:52;19.08;;;10.18;;
76202;SDS011;64985;46.364;17.008;2023-06-22T03:39:54;21.08;;;9.57;;
76202;SDS011;64985;46.364;17.008;2023-06-22T03:42:56;16.75;;;7.75;;
76202;SDS011;64985;46.364;17.008;2023-06-22T03:45:58;20.77;;;7.88;;
76202;SDS011;64985;46.364;17.008;2023-06-22T03:49:01;15.50;;;8.48;;
76202;SDS011;64985;46.364;17.008;2023-06-22T03:52:06;17.70;;;8.32;;
76202;SDS011;64985;46.364;17.008;2023-06-22T03:55:08;15.50;;;8.40;;
76202;SDS011;64985;46.364;17.008;2023-06-22T03:58:11;23.15;;;9.40;;
76202;SDS011;64985;46.364;17.008;2023-06-22T04:01:13;15.85;;;8.40;;
76202;SDS011;64985;46.364;17.008;2023-06-22T04:04:16;17.02;;;9.10;;
76202;SDS011;64985;46.364;17.008;2023-06-22T04:07:22;21.92;;;9.77;;
76202;SDS011;64985;46.364;17.008;2023-06-22T04:10:24;16.90;;;9.60;;
76202;SDS011;64985;46.364;17.008;2023-06-22T04:13:26;19.35;;;10.57;;
76202;SDS011;64985;46.364;17.008;2023-06-22T04:16:28;17.58;;;9.10;;
76202;SDS011;64985;46.364;17.008;2023-06-22T04:19:30;17.45;;;9.32;;
76202;SDS011;64985;46.364;17.008;2023-06-22T04:22:32;21.90;;;9.55;;
76202;SDS011;64985;46.364;17.008;2023-06-22T04:25:35;14.43;;;8.80;;
76202;SDS011;64985;46.364;17.008;2023-06-22T04:28:37;16.58;;;9.65;;
76202;SDS011;64985;46.364;17.008;2023-06-22T04:31:39;18.08;;;9.60;;
76202;SDS011;64985;46.364;17.008;2023-06-22T04:34:42;15.23;;;10.02;;
76202;SDS011;64985;46.364;17.008;2023-06-22T04:37:45;18.00;;;10.35;;
76202;SDS011;64985;46.364;17.008;2023-06-22T04:40:50;19.55;;;10.20;;
76202;SDS011;64985;46.364;17.008;2023-06-22T04:43:53;25.38;;;11.80;;
76202;SDS011;64985;46.364;17.008;2023-06-22T04:46:59;17.13;;;11.77;;
76202;SDS011;64985;46.364;17.008;2023-06-22T04:50:05;21.63;;;11.88;;
76202;SDS011;64985;46.364;17.008;2023-06-22T04:53:07;20.77;;;12.00;;
76202;SDS011;64985;46.364;17.008;2023-06-22T04:56:11;20.08;;;12.52;;
76202;SDS011;64985;46.364;17.008;2023-06-22T04:59:13;21.45;;;11.85;;
76202;SDS011;64985;46.364;17.008;2023-06-22T05:02:16;20.77;;;11.43;;
76202;SDS011;64985;46.364;17.008;2023-06-22T05:05:18;21.83;;;11.10;;
76202;SDS011;64985;46.364;17.008;2023-06-22T05:08:21;20.20;;;11.23;;
76202;SDS011;64985;46.364;17.008;2023-06-22T05:11:26;21.48;;;11.25;;
76202;SDS011;64985;46.364;17.008;2023-06-22T05:14:29;18.45;;;11.38;;
76202;SDS011;64985;46.364;17.008;2023-06-22T05:17:31;21.17;;;11.93;;
76202;SDS011;64985;46.364;17.008;2023-06-22T05:20:34;20.23;;;11.23;;
76202;SDS011;64985;46.364;17.008;2023-06-22T05:23:37;19.88;;;10.68;;
76202;SDS011;64985;46.364;17.008;2023-06-22T05:26:39;20.13;;;11.52;;
76202;SDS011;64985;46.364;17.008;2023-06-22T05:29:41;23.08;;;11.52;;
76202;SDS011;64985;46.364;17.008;2023-06-22T05:32:44;19.80;;;10.77;;
76202;SDS011;64985;46.364;17.008;2023-06-22T05:35:46;17.85;;;11.18;;
76202;SDS011;64985;46.364;17.008;2023-06-22T05:38:48;21.75;;;11.43;;
76202;SDS011;64985;46.364;17.008;2023-06-22T05:41:51;24.88;;;11.48;;
76202;SDS011;64985;46.364;17.008;2023-06-22T05:44:53;22.13;;;11.35;;
76202;SDS011;64985;46.364;17.008;2023-06-22T05:47:55;18.35;;;11.07;;
76202;SDS011;64985;46.364;17.008;2023-06-22T05:50:58;22.40;;;10.77;;
76202;SDS011;64985;46.364;17.008;2023-06-22T05:54:00;22.52;;;11.63;;
76202;SDS011;64985;46.364;17.008;2023-06-22T05:57:02;20.27;;;11.40;;
76202;SDS011;64985;46.364;17.008;2023-06-22T06:00:05;15.52;;;11.05;;
76202;SDS011;64985;46.364;17.008;2023-06-22T06:03:12;21.83;;;11.20;;
76202;SDS011;64985;46.364;17.008;2023-06-22T06:06:16;22.52;;;10.85;;
76202;SDS011;64985;46.364;17.008;2023-06-22T06:09:19;23.92;;;10.80;;
76202;SDS011;64985;46.364;17.008;2023-06-22T06:12:21;22.23;;;11.05;;
76202;SDS011;64985;46.364;17.008;2023-06-22T06:15:23;19.00;;;9.82;;
76202;SDS011;64985;46.364;17.008;2023-06-22T06:18:25;17.25;;;11.07;;
76202;SDS011;64985;46.364;17.008;2023-06-22T06:21:27;15.75;;;9.27;;
76202;SDS011;64985;46.364;17.008;2023-06-22T06:24:31;20.75;;;10.40;;
76202;SDS011;64985;46.364;17.008;2023-06-22T06:27:33;20.27;;;10.23;;
76202;SDS011;64985;46.364;17.008;2023-06-22T06:30:36;27.13;;;10.82;;
76202;SDS011;64985;46.364;17.008;2023-06-22T06:33:38;21.85;;;10.13;;
76202;SDS011;64985;46.364;17.008;2023-06-22T06:36:40;15.68;;;9.70;;
76202;SDS011;64985;46.364;17.008;2023-06-22T06:39:43;15.57;;;9.80;;
76202;SDS011;64985;46.364;17.008;2023-06-22T06:42:46;18.05;;;10.00;;
76202;SDS011;64985;46.364;17.008;2023-06-22T06:45:49;17.17;;;9.85;;
76202;SDS011;64985;46.364;17.008;2023-06-22T06:48:53;17.83;;;9.35;;
76202;SDS011;64985;46.364;17.008;2023-06-22T06:51:55;21.80;;;9.80;;
76202;SDS011;64985;46.364;17.008;2023-06-22T06:54:57;18.17;;;9.48;;
76202;SDS011;64985;46.364;17.008;2023-06-22T06:58:00;14.90;;;9.68;;
76202;SDS011;64985;46.364;17.008;2023-06-22T07:01:03;15.57;;;9.25;;
76202;SDS011;64985;46.364;17.008;2023-06-22T07:04:05;18.48;;;9.20;;
76202;SDS011;64985;46.364;17.008;2023-06-22T07:07:07;23.02;;;9.93;;
76202;SDS011;64985;46.364;17.008;2023-06-22T07:10:09;18.10;;;9.05;;
76202;SDS011;64985;46.364;17.008;2023-06-22T07:13:12;17.40;;;9.30;;
76202;SDS011;64985;46.364;17.008;2023-06-22T07:16:14;15.10;;;9.50;;
76202;SDS011;64985;46.364;17.008;2023-06-22T07:19:16;15.80;;;9.43;;
76202;SDS011;64985;46.364;17.008;2023-06-22T07:22:25;19.75;;;9.75;;
76202;SDS011;64985;46.364;17.008;2023-06-22T07:25:27;13.73;;;9.55;;
76202;SDS011;64985;46.364;17.008;2023-06-22T07:28:29;16.60;;;9.25;;
76202;SDS011;64985;46.364;17.008;2023-06-22T07:31:38;17.95;;;9.73;;
76202;SDS011;64985;46.364;17.008;2023-06-22T07:34:42;12.02;;;9.05;;
76202;SDS011;64985;46.364;17.008;2023-06-22T07:37:44;21.48;;;9.73;;
76202;SDS011;64985;46.364;17.008;2023-06-22T07:40:47;13.82;;;9.15;;
76202;SDS011;64985;46.364;17.008;2023-06-22T07:43:49;15.77;;;9.35;;
76202;SDS011;64985;46.364;17.008;2023-06-22T07:46:51;15.15;;;10.07;;
76202;SDS011;64985;46.364;17.008;2023-06-22T07:49:54;15.70;;;9.43;;
76202;SDS011;64985;46.364;17.008;2023-06-22T07:53:02;14.25;;;10.27;;
76202;SDS011;64985;46.364;17.008;2023-06-22T07:56:04;13.57;;;9.63;;
76202;SDS011;64985;46.364;17.008;2023-06-22T07:59:08;14.95;;;9.95;;
76202;SDS011;64985;46.364;17.008;2023-06-22T08:02:11;10.65;;;9.57;;
76202;SDS011;64985;46.364;17.008;2023-06-22T08:05:14;16.63;;;9.52;;
76202;SDS011;64985;46.364;17.008;2023-06-22T08:08:19;17.25;;;10.05;;
76202;SDS011;64985;46.364;17.008;2023-06-22T08:11:21;22.77;;;10.00;;
76202;SDS011;64985;46.364;17.008;2023-06-22T08:14:25;13.55;;;10.20;;
76202;SDS011;64985;46.364;17.008;2023-06-22T08:17:28;16.33;;;10.20;;
76202;SDS011;64985;46.364;17.008;2023-06-22T08:20:30;19.20;;;9.75;;
76202;SDS011;64985;46.364;17.008;2023-06-22T08:23:32;12.48;;;10.00;;
76202;SDS011;64985;46.364;17.008;2023-06-22T08:26:35;17.20;;;10.00;;
76202;SDS011;64985;46.364;17.008;2023-06-22T08:29:39;14.50;;;10.13;;
76202;SDS011;64985;46.364;17.008;2023-06-22T08:32:41;13.43;;;10.02;;
76202;SDS011;64985;46.364;17.008;2023-06-22T08:35:43;19.27;;;10.45;;
76202;SDS011;64985;46.364;17.008;2023-06-22T08:38:45;17.98;;;10.52;;
76202;SDS011;64985;46.364;17.008;2023-06-22T08:41:52;17.83;;;10.03;;
76202;SDS011;64985;46.364;17.008;2023-06-22T08:44:55;17.98;;;10.68;;
76202;SDS011;64985;46.364;17.008;2023-06-22T08:47:57;16.75;;;10.60;;
76202;SDS011;64985;46.364;17.008;2023-06-22T08:50:59;14.85;;;10.40;;
76202;SDS011;64985;46.364;17.008;2023-06-22T08:54:01;17.08;;;10.02;;
76202;SDS011;64985;46.364;17.008;2023-06-22T08:57:04;15.50;;;9.80;;
76202;SDS011;64985;46.364;17.008;2023-06-22T09:00:07;13.35;;;9.57;;
76202;SDS011;64985;46.364;17.008;2023-06-22T09:03:20;12.48;;;9.07;;
76202;SDS011;64985;46.364;17.008;2023-06-22T09:06:23;15.57;;;9.95;;
76202;SDS011;64985;46.364;17.008;2023-06-22T09:09:26;17.15;;;9.48;;
76202;SDS011;64985;46.364;17.008;2023-06-22T09:12:28;12.15;;;9.60;;
76202;SDS011;64985;46.364;17.008;2023-06-22T09:15:32;11.85;;;9.20;;
76202;SDS011;64985;46.364;17.008;2023-06-22T09:18:35;14.70;;;9.23;;
76202;SDS011;64985;46.364;17.008;2023-06-22T09:21:38;18.52;;;9.85;;
76202;SDS011;64985;46.364;17.008;2023-06-22T09:24:40;13.75;;;9.00;;
76202;SDS011;64985;46.364;17.008;2023-06-22T09:27:42;20.42;;;9.57;;
76202;SDS011;64985;46.364;17.008;2023-06-22T09:30:44;15.77;;;8.70;;
76202;SDS011;64985;46.364;17.008;2023-06-22T09:33:46;14.80;;;9.57;;
76202;SDS011;64985;46.364;17.008;2023-06-22T09:36:49;16.25;;;9.75;;
76202;SDS011;64985;46.364;17.008;2023-06-22T09:39:51;17.38;;;9.55;;
76202;SDS011;64985;46.364;17.008;2023-06-22T09:42:53;15.90;;;9.20;;
76202;SDS011;64985;46.364;17.008;2023-06-22T09:45:55;19.08;;;9.13;;
76202;SDS011;64985;46.364;17.008;2023-06-22T09:48:58;14.57;;;8.70;;
76202;SDS011;64985;46.364;17.008;2023-06-22T09:52:00;13.88;;;8.25;;
76202;SDS011;64985;46.364;17.008;2023-06-22T09:55:02;16.13;;;7.68;;
76202;SDS011;64985;46.364;17.008;2023-06-22T09:58:05;14.05;;;8.27;;
76202;SDS011;64985;46.364;17.008;2023-06-22T10:01:07;18.65;;;8.68;;
76202;SDS011;64985;46.364;17.008;2023-06-22T10:04:09;18.25;;;8.80;;
76202;SDS011;64985;46.364;17.008;2023-06-22T10:07:12;14.32;;;8.55;;
76202;SDS011;64985;46.364;17.008;2023-06-22T10:10:14;11.63;;;7.60;;
76202;SDS011;64985;46.364;17.008;2023-06-22T10:13:16;12.95;;;8.63;;
76202;SDS011;64985;46.364;17.008;2023-06-22T10:16:20;12.13;;;8.05;;
76202;SDS011;64985;46.364;17.008;2023-06-22T10:19:22;21.42;;;8.82;;
76202;SDS011;64985;46.364;17.008;2023-06-22T10:22:24;20.98;;;8.82;;
76202;SDS011;64985;46.364;17.008;2023-06-22T10:25:26;16.42;;;8.82;;
76202;SDS011;64985;46.364;17.008;2023-06-22T10:28:30;17.65;;;8.52;;
76202;SDS011;64985;46.364;17.008;2023-06-22T10:31:33;18.15;;;9.02;;
76202;SDS011;64985;46.364;17.008;2023-06-22T10:34:36;18.25;;;9.10;;
76202;SDS011;64985;46.364;17.008;2023-06-22T10:37:38;13.73;;;9.00;;
76202;SDS011;64985;46.364;17.008;2023-06-22T10:40:40;17.05;;;9.05;;
76202;SDS011;64985;46.364;17.008;2023-06-22T10:43:42;18.23;;;9.07;;
76202;SDS011;64985;46.364;17.008;2023-06-22T10:46:44;18.65;;;9.48;;
76202;SDS011;64985;46.364;17.008;2023-06-22T10:49:46;15.50;;;9.25;;
76202;SDS011;64985;46.364;17.008;2023-06-22T10:52:48;14.73;;;9.00;;
76202;SDS011;64985;46.364;17.008;2023-06-22T10:55:53;15.02;;;8.93;;
76202;SDS011;64985;46.364;17.008;2023-06-22T10:58:58;15.60;;;9.18;;
76202;SDS011;64985;46.364;17.008;2023-06-22T11:02:00;19.65;;;9.70;;
76202;SDS011;64985;46.364;17.008;2023-06-22T11:05:03;12.57;;;8.85;;
76202;SDS011;64985;46.364;17.008;2023-06-22T11:08:06;20.42;;;9.55;;
76202;SDS011;64985;46.364;17.008;2023-06-22T11:11:08;15.00;;;8.73;;
76202;SDS011;64985;46.364;17.008;2023-06-22T11:14:10;13.90;;;8.75;;
76202;SDS011;64985;46.364;17.008;2023-06-22T11:17:12;17.90;;;9.43;;
76202;SDS011;64985;46.364;17.008;2023-06-22T11:20:15;16.70;;;9.02;;
76202;SDS011;64985;46.364;17.008;2023-06-22T11:23:17;15.50;;;9.60;;
76202;SDS011;64985;46.364;17.008;2023-06-22T11:26:20;16.80;;;9.68;;
76202;SDS011;64985;46.364;17.008;2023-06-22T11:29:22;15.05;;;9.10;;
76202;SDS011;64985;46.364;17.008;2023-06-22T11:32:38;20.98;;;9.50;;
76202;SDS011;64985;46.364;17.008;2023-06-22T11:35:41;15.75;;;10.40;;
76202;SDS011;64985;46.364;17.008;2023-06-22T11:38:43;15.95;;;9.82;;
76202;SDS011;64985;46.364;17.008;2023-06-22T11:41:45;17.90;;;10.23;;
76202;SDS011;64985;46.364;17.008;2023-06-22T11:44:47;17.00;;;9.15;;
76202;SDS011;64985;46.364;17.008;2023-06-22T11:47:49;17.42;;;9.70;;
76202;SDS011;64985;46.364;17.008;2023-06-22T11:50:52;14.57;;;10.10;;
76202;SDS011;64985;46.364;17.008;2023-06-22T11:53:54;16.08;;;10.10;;
76202;SDS011;64985;46.364;17.008;2023-06-22T11:56:56;14.65;;;9.85;;
76202;SDS011;64985;46.364;17.008;2023-06-22T11:59:58;16.35;;;9.77;;
76202;SDS011;64985;46.364;17.008;2023-06-22T12:03:00;15.55;;;9.52;;
76202;SDS011;64985;46.364;17.008;2023-06-22T12:06:02;14.60;;;10.60;;
76202;SDS011;64985;46.364;17.008;2023-06-22T12:09:05;19.00;;;9.68;;
76202;SDS011;64985;46.364;17.008;2023-06-22T12:12:07;14.02;;;9.38;;
76202;SDS011;64985;46.364;17.008;2023-06-22T12:15:09;16.08;;;9.88;;
76202;SDS011;64985;46.364;17.008;2023-06-22T12:18:12;15.57;;;9.73;;
76202;SDS011;64985;46.364;17.008;2023-06-22T12:21:16;21.00;;;9.82;;
76202;SDS011;64985;46.364;17.008;2023-06-22T12:24:18;17.13;;;9.75;;
76202;SDS011;64985;46.364;17.008;2023-06-22T12:27:20;15.55;;;9.80;;
76202;SDS011;64985;46.364;17.008;2023-06-22T12:30:23;15.55;;;9.82;;
76202;SDS011;64985;46.364;17.008;2023-06-22T12:33:25;19.52;;;9.60;;
76202;SDS011;64985;46.364;17.008;2023-06-22T12:36:27;17.63;;;9.73;;
76202;SDS011;64985;46.364;17.008;2023-06-22T12:39:29;15.05;;;10.02;;
76202;SDS011;64985;46.364;17.008;2023-06-22T12:42:31;16.58;;;9.93;;
76202;SDS011;64985;46.364;17.008;2023-06-22T12:45:33;16.30;;;9.75;;
76202;SDS011;64985;46.364;17.008;2023-06-22T12:48:36;15.32;;;9.90;;
76202;SDS011;64985;46.364;17.008;2023-06-22T12:51:43;15.88;;;9.40;;
76202;SDS011;64985;46.364;17.008;2023-06-22T12:54:46;16.83;;;9.80;;
76202;SDS011;64985;46.364;17.008;2023-06-22T12:57:56;17.95;;;9.88;;
76202;SDS011;64985;46.364;17.008;2023-06-22T13:00:58;13.13;;;9.63;;
76202;SDS011;64985;46.364;17.008;2023-06-22T13:04:00;30.23;;;10.20;;
76202;SDS011;64985;46.364;17.008;2023-06-22T13:07:02;17.02;;;9.00;;
76202;SDS011;64985;46.364;17.008;2023-06-22T13:13:23;20.35;;;9.38;;
76202;SDS011;64985;46.364;17.008;2023-06-22T13:16:28;14.77;;;9.38;;
76202;SDS011;64985;46.364;17.008;2023-06-22T13:19:31;14.77;;;9.40;;
76202;SDS011;64985;46.364;17.008;2023-06-22T13:22:34;18.45;;;10.25;;
76202;SDS011;64985;46.364;17.008;2023-06-22T13:25:44;17.17;;;10.00;;
76202;SDS011;64985;46.364;17.008;2023-06-22T13:28:46;12.90;;;9.55;;
76202;SDS011;64985;46.364;17.008;2023-06-22T13:31:49;16.17;;;9.98;;
76202;SDS011;64985;46.364;17.008;2023-06-22T13:34:51;16.35;;;9.30;;
76202;SDS011;64985;46.364;17.008;2023-06-22T13:37:54;14.15;;;9.45;;
76202;SDS011;64985;46.364;17.008;2023-06-22T13:40:56;13.40;;;9.05;;
76202;SDS011;64985;46.364;17.008;2023-06-22T13:44:00;14.10;;;9.07;;
76202;SDS011;64985;46.364;17.008;2023-06-22T13:47:02;15.25;;;9.77;;
76202;SDS011;64985;46.364;17.008;2023-06-22T13:50:06;15.07;;;9.40;;
76202;SDS011;64985;46.364;17.008;2023-06-22T13:53:08;15.95;;;9.38;;
76202;SDS011;64985;46.364;17.008;2023-06-22T13:56:11;15.43;;;9.95;;
76202;SDS011;64985;46.364;17.008;2023-06-22T13:59:13;16.33;;;9.88;;
76202;SDS011;64985;46.364;17.008;2023-06-22T14:02:15;15.45;;;9.73;;
76202;SDS011;64985;46.364;17.008;2023-06-22T14:05:18;12.73;;;10.07;;
76202;SDS011;64985;46.364;17.008;2023-06-22T14:08:20;16.02;;;10.10;;
76202;SDS011;64985;46.364;17.008;2023-06-22T14:11:42;18.08;;;10.07;;
76202;SDS011;64985;46.364;17.008;2023-06-22T14:14:44;13.90;;;10.07;;
76202;SDS011;64985;46.364;17.008;2023-06-22T14:17:46;18.52;;;10.13;;
76202;SDS011;64985;46.364;17.008;2023-06-22T14:20:49;17.20;;;9.98;;
76202;SDS011;64985;46.364;17.008;2023-06-22T14:23:51;19.20;;;9.95;;
76202;SDS011;64985;46.364;17.008;2023-06-22T14:26:53;17.08;;;10.00;;
76202;SDS011;64985;46.364;17.008;2023-06-22T14:29:56;17.00;;;9.35;;
76202;SDS011;64985;46.364;17.008;2023-06-22T14:32:58;18.58;;;9.93;;
76202;SDS011;64985;46.364;17.008;2023-06-22T14:36:01;18.42;;;10.00;;
76202;SDS011;64985;46.364;17.008;2023-06-22T14:39:03;14.02;;;9.93;;
76202;SDS011;64985;46.364;17.008;2023-06-22T14:42:05;16.77;;;10.05;;
76202;SDS011;64985;46.364;17.008;2023-06-22T14:45:07;15.50;;;9.30;;
76202;SDS011;64985;46.364;17.008;2023-06-22T14:48:10;16.40;;;9.48;;
76202;SDS011;64985;46.364;17.008;2023-06-22T14:51:12;25.15;;;9.85;;
76202;SDS011;64985;46.364;17.008;2023-06-22T14:54:17;16.27;;;9.88;;
76202;SDS011;64985;46.364;17.008;2023-06-22T14:57:19;15.32;;;9.80;;
76202;SDS011;64985;46.364;17.008;2023-06-22T15:00:24;16.13;;;10.20;;
76202;SDS011;64985;46.364;17.008;2023-06-22T15:03:26;15.68;;;9.75;;
76202;SDS011;64985;46.364;17.008;2023-06-22T15:06:30;18.33;;;9.95;;
76202;SDS011;64985;46.364;17.008;2023-06-22T15:09:32;16.85;;;9.75;;
76202;SDS011;64985;46.364;17.008;2023-06-22T15:12:35;14.10;;;9.63;;
76202;SDS011;64985;46.364;17.008;2023-06-22T15:15:37;16.52;;;10.38;;
76202;SDS011;64985;46.364;17.008;2023-06-22T15:18:41;21.58;;;10.85;;
76202;SDS011;64985;46.364;17.008;2023-06-22T15:21:43;15.60;;;10.20;;
76202;SDS011;64985;46.364;17.008;2023-06-22T15:24:45;21.13;;;9.80;;
76202;SDS011;64985;46.364;17.008;2023-06-22T15:27:49;18.75;;;10.38;;
76202;SDS011;64985;46.364;17.008;2023-06-22T15:30:51;18.52;;;10.55;;
76202;SDS011;64985;46.364;17.008;2023-06-22T15:33:54;15.13;;;10.13;;
76202;SDS011;64985;46.364;17.008;2023-06-22T15:36:56;20.05;;;10.82;;
76202;SDS011;64985;46.364;17.008;2023-06-22T15:39:58;15.73;;;9.48;;
76202;SDS011;64985;46.364;17.008;2023-06-22T15:43:00;16.67;;;10.32;;
76202;SDS011;64985;46.364;17.008;2023-06-22T15:46:03;18.48;;;10.50;;
76202;SDS011;64985;46.364;17.008;2023-06-22T15:49:05;16.88;;;9.57;;
76202;SDS011;64985;46.364;17.008;2023-06-22T15:52:07;16.65;;;9.48;;
76202;SDS011;64985;46.364;17.008;2023-06-22T15:55:09;19.63;;;10.82;;
76202;SDS011;64985;46.364;17.008;2023-06-22T15:58:11;19.05;;;9.88;;
76202;SDS011;64985;46.364;17.008;2023-06-22T16:01:14;17.63;;;9.85;;
76202;SDS011;64985;46.364;17.008;2023-06-22T16:04:16;18.10;;;9.88;;
76202;SDS011;64985;46.364;17.008;2023-06-22T16:07:19;21.42;;;9.80;;
76202;SDS011;64985;46.364;17.008;2023-06-22T16:10:21;17.88;;;9.73;;
76202;SDS011;64985;46.364;17.008;2023-06-22T16:13:23;19.42;;;9.93;;
76202;SDS011;64985;46.364;17.008;2023-06-22T16:16:25;17.70;;;9.90;;
76202;SDS011;64985;46.364;17.008;2023-06-22T16:19:27;18.60;;;9.75;;
76202;SDS011;64985;46.364;17.008;2023-06-22T16:22:31;17.55;;;9.73;;
76202;SDS011;64985;46.364;17.008;2023-06-22T16:25:33;17.77;;;10.02;;
76202;SDS011;64985;46.364;17.008;2023-06-22T16:28:35;17.73;;;9.60;;
76202;SDS011;64985;46.364;17.008;2023-06-22T16:31:37;18.42;;;9.55;;
76202;SDS011;64985;46.364;17.008;2023-06-22T16:34:39;22.10;;;10.32;;
76202;SDS011;64985;46.364;17.008;2023-06-22T16:37:42;14.45;;;9.63;;
76202;SDS011;64985;46.364;17.008;2023-06-22T16:40:44;16.38;;;9.82;;
76202;SDS011;64985;46.364;17.008;2023-06-22T16:43:46;18.00;;;9.65;;
76202;SDS011;64985;46.364;17.008;2023-06-22T16:46:48;21.00;;;9.45;;
76202;SDS011;64985;46.364;17.008;2023-06-22T16:49:51;16.52;;;9.38;;
76202;SDS011;64985;46.364;17.008;2023-06-22T16:52:53;20.75;;;10.10;;
76202;SDS011;64985;46.364;17.008;2023-06-22T16:55:55;17.25;;;9.85;;
76202;SDS011;64985;46.364;17.008;2023-06-22T16:58:58;16.95;;;9.43;;
76202;SDS011;64985;46.364;17.008;2023-06-22T17:02:04;16.92;;;9.32;;
76202;SDS011;64985;46.364;17.008;2023-06-22T17:05:07;24.02;;;9.70;;
76202;SDS011;64985;46.364;17.008;2023-06-22T17:08:10;14.35;;;9.35;;
76202;SDS011;64985;46.364;17.008;2023-06-22T17:11:15;13.15;;;9.55;;
76202;SDS011;64985;46.364;17.008;2023-06-22T17:14:17;15.77;;;9.82;;
76202;SDS011;64985;46.364;17.008;2023-06-22T17:17:19;17.15;;;9.68;;
76202;SDS011;64985;46.364;17.008;2023-06-22T17:20:26;16.02;;;9.95;;
76202;SDS011;64985;46.364;17.008;2023-06-22T17:23:30;17.33;;;10.38;;
76202;SDS011;64985;46.364;17.008;2023-06-22T17:26:32;16.83;;;9.77;;
76202;SDS011;64985;46.364;17.008;2023-06-22T17:29:34;14.68;;;9.60;;
76202;SDS011;64985;46.364;17.008;2023-06-22T17:32:37;16.55;;;10.30;;
76202;SDS011;64985;46.364;17.008;2023-06-22T17:35:46;16.05;;;10.00;;
76202;SDS011;64985;46.364;17.008;2023-06-22T17:38:49;16.45;;;10.57;;
76202;SDS011;64985;46.364;17.008;2023-06-22T17:41:52;22.35;;;11.20;;
76202;SDS011;64985;46.364;17.008;2023-06-22T17:44:59;23.33;;;10.75;;
76202;SDS011;64985;46.364;17.008;2023-06-22T17:48:03;16.45;;;10.32;;
76202;SDS011;64985;46.364;17.008;2023-06-22T17:51:12;16.13;;;10.55;;
76202;SDS011;64985;46.364;17.008;2023-06-22T17:54:15;15.73;;;10.95;;
76202;SDS011;64985;46.364;17.008;2023-06-22T17:57:17;16.73;;;10.82;;